sensor_id;sensor_type;location;lat;lon;timestamp;pressure;altitude;pressure_sealevel;temperature;humidity
80103;BME280;69865;47.648;19.030;2023-06-10T00:00:17;100116.50;;;14.88;99.17
80103;BME280;69865;47.648;19.030;2023-06-10T00:00:49;100105.06;;;14.87;99.00
80103;BME280;69865;47.648;19.030;2023-06-10T00:01:21;100114.69;;;14.88;99.12
80103;BME280;69865;47.648;19.030;2023-06-10T00:01:53;100109.53;;;14.87;98.82
80103;BME280;69865;47.648;19.030;2023-06-10T00:02:26;100107.72;;;14.87;98.73
80103;BME280;69865;47.648;19.030;2023-06-10T00:02:58;100106.72;;;14.88;99.26
80103;BME280;69865;47.648;19.030;2023-06-10T00:03:30;100108.69;;;14.86;99.32
80103;BME280;69865;47.648;19.030;2023-06-10T00:04:03;100108.69;;;14.86;99.14
80103;BME280;69865;47.648;19.030;2023-06-10T00:04:35;100107.03;;;14.85;99.55
80103;BME280;69865;47.648;19.030;2023-06-10T00:05:08;100104.56;;;14.84;99.50
80103;BME280;69865;47.648;19.030;2023-06-10T00:05:41;100110.03;;;14.82;99.32
80103;BME280;69865;47.648;19.030;2023-06-10T00:06:13;100110.03;;;14.82;98.95
80103;BME280;69865;47.648;19.030;2023-06-10T00:06:45;100105.72;;;14.81;99.45
80103;BME280;69865;47.648;19.030;2023-06-10T00:07:17;100113.66;;;14.81;99.29
80103;BME280;69865;47.648;19.030;2023-06-10T00:07:49;100108.22;;;14.83;99.43
80103;BME280;69865;47.648;19.030;2023-06-10T00:08:21;100106.38;;;14.83;99.28
80103;BME280;69865;47.648;19.030;2023-06-10T00:08:53;100100.94;;;14.85;99.25
80103;BME280;69865;47.648;19.030;2023-06-10T00:09:25;100107.22;;;14.84;99.15
80103;BME280;69865;47.648;19.030;2023-06-10T00:09:57;100109.88;;;14.84;99.56
80103;BME280;69865;47.648;19.030;2023-06-10T00:10:29;100108.06;;;14.84;99.63
80103;BME280;69865;47.648;19.030;2023-06-10T00:11:01;100107.72;;;14.87;99.97
80103;BME280;69865;47.648;19.030;2023-06-10T00:11:35;100112.84;;;14.89;99.84
80103;BME280;69865;47.648;19.030;2023-06-10T00:12:08;100106.72;;;14.88;99.57
80103;BME280;69865;47.648;19.030;2023-06-10T00:12:40;100101.44;;;14.88;99.32
80103;BME280;69865;47.648;19.030;2023-06-10T00:13:12;100110.38;;;14.87;99.51
80103;BME280;69865;47.648;19.030;2023-06-10T00:13:44;100102.56;;;14.86;99.58
80103;BME280;69865;47.648;19.030;2023-06-10T00:14:16;100106.22;;;14.85;99.47
80103;BME280;69865;47.648;19.030;2023-06-10T00:14:49;100103.41;;;14.86;99.40
80103;BME280;69865;47.648;19.030;2023-06-10T00:15:21;100104.38;;;14.85;98.98
80103;BME280;69865;47.648;19.030;2023-06-10T00:15:53;100107.88;;;14.86;99.70
80103;BME280;69865;47.648;19.030;2023-06-10T00:16:25;100108.88;;;14.85;99.77
80103;BME280;69865;47.648;19.030;2023-06-10T00:16:57;100104.56;;;14.84;99.26
80103;BME280;69865;47.648;19.030;2023-06-10T00:17:29;100109.69;;;14.85;99.08
80103;BME280;69865;47.648;19.030;2023-06-10T00:18:01;100105.41;;;14.84;99.72
80103;BME280;69865;47.648;19.030;2023-06-10T00:18:33;100103.59;;;14.85;99.45
80103;BME280;69865;47.648;19.030;2023-06-10T00:19:06;100107.38;;;14.82;99.68
80103;BME280;69865;47.648;19.030;2023-06-10T00:19:38;100099.41;;;14.82;99.88
80103;BME280;69865;47.648;19.030;2023-06-10T00:20:11;100104.91;;;14.81;100.00
80103;BME280;69865;47.648;19.030;2023-06-10T00:20:43;100105.91;;;14.80;99.46
80103;BME280;69865;47.648;19.030;2023-06-10T00:21:15;100102.25;;;14.81;99.72
80103;BME280;69865;47.648;19.030;2023-06-10T00:21:47;100100.94;;;14.85;99.89
80103;BME280;69865;47.648;19.030;2023-06-10T00:22:19;100106.22;;;14.85;100.00
80103;BME280;69865;47.648;19.030;2023-06-10T00:22:51;100108.69;;;14.86;99.14
80103;BME280;69865;47.648;19.030;2023-06-10T00:23:23;100107.22;;;14.84;99.30
80103;BME280;69865;47.648;19.030;2023-06-10T00:23:56;100104.72;;;14.82;99.77
80103;BME280;69865;47.648;19.030;2023-06-10T00:24:28;100102.06;;;14.82;99.10
80103;BME280;69865;47.648;19.030;2023-06-10T00:25:00;100099.59;;;14.81;99.08
80103;BME280;69865;47.648;19.030;2023-06-10T00:25:32;100103.06;;;14.81;98.96
80103;BME280;69865;47.648;19.030;2023-06-10T00:26:04;100099.59;;;14.81;98.75
80103;BME280;69865;47.648;19.030;2023-06-10T00:26:38;100102.56;;;14.78;99.37
80103;BME280;69865;47.648;19.030;2023-06-10T00:27:10;100099.06;;;14.77;98.98
80103;BME280;69865;47.648;19.030;2023-06-10T00:27:42;100096.63;;;14.76;98.82
80103;BME280;69865;47.648;19.030;2023-06-10T00:28:14;100097.59;;;14.75;99.12
80103;BME280;69865;47.648;19.030;2023-06-10T00:28:46;100099.41;;;14.74;98.71
80103;BME280;69865;47.648;19.030;2023-06-10T00:29:18;100093.63;;;14.71;99.15
80103;BME280;69865;47.648;19.030;2023-06-10T00:29:51;100092.97;;;14.69;99.24
80103;BME280;69865;47.648;19.030;2023-06-10T00:30:23;100097.09;;;14.71;99.29
80103;BME280;69865;47.648;19.030;2023-06-10T00:30:55;100092.63;;;14.72;99.03
80103;BME280;69865;47.648;19.030;2023-06-10T00:31:27;100095.94;;;14.74;99.25
80103;BME280;69865;47.648;19.030;2023-06-10T00:31:59;100089.97;;;14.72;99.64
80103;BME280;69865;47.648;19.030;2023-06-10T00:32:31;100097.75;;;14.73;100.00
80103;BME280;69865;47.648;19.030;2023-06-10T00:33:03;100092.63;;;14.72;99.92
80103;BME280;69865;47.648;19.030;2023-06-10T00:33:35;100096.78;;;14.74;99.41
80103;BME280;69865;47.648;19.030;2023-06-10T00:34:07;100097.59;;;14.75;99.70
80103;BME280;69865;47.648;19.030;2023-06-10T00:34:39;100082.69;;;14.66;100.00
80103;BME280;69865;47.648;19.030;2023-06-10T00:35:12;100097.59;;;14.75;99.10
80103;BME280;69865;47.648;19.030;2023-06-10T00:35:44;100093.13;;;14.75;99.34
80103;BME280;69865;47.648;19.030;2023-06-10T00:36:16;100092.16;;;14.76;99.26
80103;BME280;69865;47.648;19.030;2023-06-10T00:36:48;100097.44;;;14.76;99.61
80103;BME280;69865;47.648;19.030;2023-06-10T00:37:20;100093.13;;;14.75;99.37
80103;BME280;69865;47.648;19.030;2023-06-10T00:37:52;100095.78;;;14.75;99.13
80103;BME280;69865;47.648;19.030;2023-06-10T00:38:24;100091.66;;;14.73;99.34
80103;BME280;69865;47.648;19.030;2023-06-10T00:38:56;100095.28;;;14.72;98.96
80103;BME280;69865;47.648;19.030;2023-06-10T00:39:29;100096.28;;;14.71;99.79
80103;BME280;69865;47.648;19.030;2023-06-10T00:40:01;100095.44;;;14.70;99.16
80103;BME280;69865;47.648;19.030;2023-06-10T00:40:39;100098.78;;;14.72;99.29
80103;BME280;69865;47.648;19.030;2023-06-10T00:41:11;100097.59;;;14.75;99.35
80103;BME280;69865;47.648;19.030;2023-06-10T00:41:44;100098.28;;;14.77;99.30
80103;BME280;69865;47.648;19.030;2023-06-10T00:42:16;100096.13;;;14.72;99.30
80103;BME280;69865;47.648;19.030;2023-06-10T00:42:48;100091.66;;;14.73;99.49
80103;BME280;69865;47.648;19.030;2023-06-10T00:43:20;100092.16;;;14.76;99.47
80103;BME280;69865;47.648;19.030;2023-06-10T00:43:53;100097.09;;;14.79;98.80
80103;BME280;69865;47.648;19.030;2023-06-10T00:44:25;100101.44;;;14.80;98.96
80103;BME280;69865;47.648;19.030;2023-06-10T00:44:57;100097.94;;;14.80;98.97
80103;BME280;69865;47.648;19.030;2023-06-10T00:45:29;100099.91;;;14.78;98.76
80103;BME280;69865;47.648;19.030;2023-06-10T00:46:01;100100.94;;;14.77;98.93
80103;BME280;69865;47.648;19.030;2023-06-10T00:46:34;100109.03;;;14.75;98.73
80103;BME280;69865;47.648;19.030;2023-06-10T00:47:07;100102.41;;;14.71;98.19
80103;BME280;69865;47.648;19.030;2023-06-10T00:47:39;100104.22;;;14.71;97.73
80103;BME280;69865;47.648;19.030;2023-06-10T00:48:12;100103.72;;;14.67;98.59
80103;BME280;69865;47.648;19.030;2023-06-10T00:48:45;100104.56;;;14.68;97.79
80103;BME280;69865;47.648;19.030;2023-06-10T00:49:18;100102.41;;;14.63;98.47
80103;BME280;69865;47.648;19.030;2023-06-10T00:49:50;100106.72;;;14.64;98.35
80103;BME280;69865;47.648;19.030;2023-06-10T00:50:23;100107.84;;;14.62;98.02
80103;BME280;69865;47.648;19.030;2023-06-10T00:50:55;100107.03;;;14.61;97.65
80103;BME280;69865;47.648;19.030;2023-06-10T00:51:28;100107.84;;;14.62;98.40
80103;BME280;69865;47.648;19.030;2023-06-10T00:52:00;100098.41;;;14.59;98.01
80103;BME280;69865;47.648;19.030;2023-06-10T00:52:33;100109.03;;;14.59;98.21
80103;BME280;69865;47.648;19.030;2023-06-10T00:53:08;100109.03;;;14.59;98.34
80103;BME280;69865;47.648;19.030;2023-06-10T00:53:41;100108.03;;;14.60;98.37
80103;BME280;69865;47.648;19.030;2023-06-10T00:54:13;100107.22;;;14.60;99.00
80103;BME280;69865;47.648;19.030;2023-06-10T00:54:45;100110.69;;;14.60;98.46
80103;BME280;69865;47.648;19.030;2023-06-10T00:55:18;100108.88;;;14.61;99.13
80103;BME280;69865;47.648;19.030;2023-06-10T00:55:50;100104.88;;;14.56;99.49
80103;BME280;69865;47.648;19.030;2023-06-10T00:56:23;100105.88;;;14.55;99.48
80103;BME280;69865;47.648;19.030;2023-06-10T00:56:56;100109.34;;;14.56;100.00
80103;BME280;69865;47.648;19.030;2023-06-10T00:57:29;100111.00;;;14.57;99.46
80103;BME280;69865;47.648;19.030;2023-06-10T00:58:03;100113.50;;;14.58;100.00
80103;BME280;69865;47.648;19.030;2023-06-10T00:58:35;100100.91;;;14.61;99.42
80103;BME280;69865;47.648;19.030;2023-06-10T00:59:08;100107.03;;;14.61;99.68
80103;BME280;69865;47.648;19.030;2023-06-10T00:59:40;100112.66;;;14.66;99.97
80103;BME280;69865;47.648;19.030;2023-06-10T01:00:14;100109.88;;;14.68;99.36
80103;BME280;69865;47.648;19.030;2023-06-10T01:00:46;100108.03;;;14.68;98.97
80103;BME280;69865;47.648;19.030;2023-06-10T01:01:18;100107.88;;;14.70;99.54
80103;BME280;69865;47.648;19.030;2023-06-10T01:01:50;100114.84;;;14.71;99.89
80103;BME280;69865;47.648;19.030;2023-06-10T01:02:22;100113.16;;;14.70;99.02
80103;BME280;69865;47.648;19.030;2023-06-10T01:02:55;100106.03;;;14.70;99.05
80103;BME280;69865;47.648;19.030;2023-06-10T01:03:27;100107.72;;;14.71;99.23
80103;BME280;69865;47.648;19.030;2023-06-10T01:03:59;100104.22;;;14.71;99.35
80103;BME280;69865;47.648;19.030;2023-06-10T01:04:31;100106.72;;;14.72;99.07
80103;BME280;69865;47.648;19.030;2023-06-10T01:05:04;100109.03;;;14.75;99.43
80103;BME280;69865;47.648;19.030;2023-06-10T01:05:38;100107.22;;;14.76;98.41
80103;BME280;69865;47.648;19.030;2023-06-10T01:06:20;100107.22;;;14.76;98.93
80103;BME280;69865;47.648;19.030;2023-06-10T01:07:03;100107.88;;;14.78;98.75
80103;BME280;69865;47.648;19.030;2023-06-10T01:07:45;100108.53;;;14.80;98.42
80103;BME280;69865;47.648;19.030;2023-06-10T01:08:26;100114.00;;;14.78;98.34
80103;BME280;69865;47.648;19.030;2023-06-10T01:09:05;100108.06;;;14.76;98.63
80103;BME280;69865;47.648;19.030;2023-06-10T01:09:45;100106.06;;;14.78;98.48
80103;BME280;69865;47.648;19.030;2023-06-10T01:10:23;100105.91;;;14.80;98.20
80103;BME280;69865;47.648;19.030;2023-06-10T01:10:59;100108.06;;;14.76;98.42
80103;BME280;69865;47.648;19.030;2023-06-10T01:11:37;100110.38;;;14.79;98.99
80103;BME280;69865;47.648;19.030;2023-06-10T01:12:20;100104.22;;;14.79;98.93
80103;BME280;69865;47.648;19.030;2023-06-10T01:12:58;100110.38;;;14.79;98.47
80103;BME280;69865;47.648;19.030;2023-06-10T01:13:32;100109.19;;;14.82;98.40
80103;BME280;69865;47.648;19.030;2023-06-10T01:14:09;100106.06;;;14.78;98.69
80103;BME280;69865;47.648;19.030;2023-06-10T01:14:42;100106.06;;;14.78;98.11
80103;BME280;69865;47.648;19.030;2023-06-10T01:15:15;100106.72;;;14.80;98.60
80103;BME280;69865;47.648;19.030;2023-06-10T01:15:47;100108.34;;;14.81;98.22
80103;BME280;69865;47.648;19.030;2023-06-10T01:16:20;100107.72;;;14.79;98.66
80103;BME280;69865;47.648;19.030;2023-06-10T01:16:52;100107.72;;;14.79;98.20
80103;BME280;69865;47.648;19.030;2023-06-10T01:17:24;100101.44;;;14.80;98.10
80103;BME280;69865;47.648;19.030;2023-06-10T01:17:57;100103.25;;;14.80;98.68
80103;BME280;69865;47.648;19.030;2023-06-10T01:18:31;100102.41;;;14.79;98.58
80103;BME280;69865;47.648;19.030;2023-06-10T01:19:03;100106.72;;;14.80;98.79
80103;BME280;69865;47.648;19.030;2023-06-10T01:19:35;100103.72;;;14.75;98.90
80103;BME280;69865;47.648;19.030;2023-06-10T01:20:08;100109.19;;;14.74;99.15
80103;BME280;69865;47.648;19.030;2023-06-10T01:20:42;100107.56;;;14.73;98.86
80103;BME280;69865;47.648;19.030;2023-06-10T01:21:20;100114.34;;;14.75;98.67
80103;BME280;69865;47.648;19.030;2023-06-10T01:21:52;100108.88;;;14.77;99.04
80103;BME280;69865;47.648;19.030;2023-06-10T01:22:25;100111.84;;;14.82;98.69
80103;BME280;69865;47.648;19.030;2023-06-10T01:22:58;100105.72;;;14.81;98.68
80103;BME280;69865;47.648;19.030;2023-06-10T01:23:30;100106.53;;;14.82;98.52
80103;BME280;69865;47.648;19.030;2023-06-10T01:24:03;100110.72;;;14.84;98.20
80103;BME280;69865;47.648;19.030;2023-06-10T01:24:35;100103.06;;;14.81;98.04
80103;BME280;69865;47.648;19.030;2023-06-10T01:25:08;100109.19;;;14.82;98.44
80103;BME280;69865;47.648;19.030;2023-06-10T01:25:45;100105.56;;;14.83;98.43
80103;BME280;69865;47.648;19.030;2023-06-10T01:26:23;100107.22;;;14.84;98.42
80103;BME280;69865;47.648;19.030;2023-06-10T01:27:00;100112.03;;;14.80;98.29
80103;BME280;69865;47.648;19.030;2023-06-10T01:27:38;100107.88;;;14.78;97.97
80103;BME280;69865;47.648;19.030;2023-06-10T01:28:14;100100.41;;;14.73;98.05
80103;BME280;69865;47.648;19.030;2023-06-10T01:28:50;100109.03;;;14.75;98.71
80103;BME280;69865;47.648;19.030;2023-06-10T01:29:31;100104.72;;;14.74;98.84
80103;BME280;69865;47.648;19.030;2023-06-10T01:30:10;100113.34;;;14.76;99.08
80103;BME280;69865;47.648;19.030;2023-06-10T01:30:51;100108.88;;;14.77;98.14
80103;BME280;69865;47.648;19.030;2023-06-10T01:31:33;100102.06;;;14.74;98.13
80103;BME280;69865;47.648;19.030;2023-06-10T01:32:17;100106.38;;;14.75;98.47
80103;BME280;69865;47.648;19.030;2023-06-10T01:32:51;100110.84;;;14.75;98.40
80103;BME280;69865;47.648;19.030;2023-06-10T01:33:28;100107.22;;;14.76;98.29
80103;BME280;69865;47.648;19.030;2023-06-10T01:34:01;100117.16;;;14.74;98.19
80103;BME280;69865;47.648;19.030;2023-06-10T01:34:35;100105.88;;;14.72;98.36
80103;BME280;69865;47.648;19.030;2023-06-10T01:35:08;100110.34;;;14.71;98.09
80103;BME280;69865;47.648;19.030;2023-06-10T01:35:43;100118.66;;;14.68;97.62
80103;BME280;69865;47.648;19.030;2023-06-10T01:36:19;100106.53;;;14.66;97.62
80103;BME280;69865;47.648;19.030;2023-06-10T01:36:57;100106.88;;;14.63;97.23
80103;BME280;69865;47.648;19.030;2023-06-10T01:37:31;100106.72;;;14.64;97.05
80103;BME280;69865;47.648;19.030;2023-06-10T01:38:04;100104.88;;;14.56;97.09
80103;BME280;69865;47.648;19.030;2023-06-10T01:38:40;100107.84;;;14.53;96.74
80103;BME280;69865;47.648;19.030;2023-06-10T01:39:15;100110.50;;;14.53;96.48
80103;BME280;69865;47.648;19.030;2023-06-10T01:39:49;100105.19;;;14.53;96.62
80103;BME280;69865;47.648;19.030;2023-06-10T01:40:23;100108.03;;;14.52;97.29
80103;BME280;69865;47.648;19.030;2023-06-10T01:40:56;100106.34;;;14.51;97.21
80103;BME280;69865;47.648;19.030;2023-06-10T01:41:28;100105.72;;;14.49;96.51
80103;BME280;69865;47.648;19.030;2023-06-10T01:42:02;100104.03;;;14.48;96.83
80103;BME280;69865;47.648;19.030;2023-06-10T01:42:35;100100.06;;;14.44;96.93
80103;BME280;69865;47.648;19.030;2023-06-10T01:43:07;100108.66;;;14.38;97.46
80103;BME280;69865;47.648;19.030;2023-06-10T01:43:39;100108.00;;;14.36;97.43
80103;BME280;69865;47.648;19.030;2023-06-10T01:44:12;100096.88;;;14.32;97.62
80103;BME280;69865;47.648;19.030;2023-06-10T01:44:44;100099.66;;;14.31;98.24
80103;BME280;69865;47.648;19.030;2023-06-10T01:45:16;100102.16;;;14.32;98.39
80103;BME280;69865;47.648;19.030;2023-06-10T01:45:48;100101.03;;;14.35;98.70
80103;BME280;69865;47.648;19.030;2023-06-10T01:46:20;100099.22;;;14.35;98.25
80103;BME280;69865;47.648;19.030;2023-06-10T01:46:52;100102.38;;;14.39;98.58
80103;BME280;69865;47.648;19.030;2023-06-10T01:47:24;100099.06;;;14.37;98.27
80103;BME280;69865;47.648;19.030;2023-06-10T01:47:56;100098.06;;;14.38;98.89
80103;BME280;69865;47.648;19.030;2023-06-10T01:48:28;100097.06;;;14.39;98.90
80103;BME280;69865;47.648;19.030;2023-06-10T01:49:01;100102.03;;;14.42;99.49
80103;BME280;69865;47.648;19.030;2023-06-10T01:49:33;100097.91;;;14.39;99.49
80103;BME280;69865;47.648;19.030;2023-06-10T01:50:06;100100.56;;;14.39;98.70
80103;BME280;69865;47.648;19.030;2023-06-10T01:50:38;100098.56;;;14.41;99.56
80103;BME280;69865;47.648;19.030;2023-06-10T01:51:10;100094.91;;;14.42;99.10
80103;BME280;69865;47.648;19.030;2023-06-10T01:51:44;100097.41;;;14.44;99.28
80103;BME280;69865;47.648;19.030;2023-06-10T01:52:16;100100.72;;;14.46;99.67
80103;BME280;69865;47.648;19.030;2023-06-10T01:52:48;100091.78;;;14.47;99.78
80103;BME280;69865;47.648;19.030;2023-06-10T01:53:20;100098.06;;;14.46;99.35
80103;BME280;69865;47.648;19.030;2023-06-10T01:53:52;100096.44;;;14.45;99.32
80103;BME280;69865;47.648;19.030;2023-06-10T01:54:24;100088.78;;;14.42;99.36
80103;BME280;69865;47.648;19.030;2023-06-10T01:54:56;100094.25;;;14.40;98.72
80103;BME280;69865;47.648;19.030;2023-06-10T01:55:28;100097.06;;;14.39;98.21
80103;BME280;69865;47.648;19.030;2023-06-10T01:56:01;100100.69;;;14.38;98.29
80103;BME280;69865;47.648;19.030;2023-06-10T01:56:33;100103.69;;;14.35;98.50
80103;BME280;69865;47.648;19.030;2023-06-10T01:57:05;100092.19;;;14.26;97.65
80103;BME280;69865;47.648;19.030;2023-06-10T01:57:37;100101.66;;;14.21;97.55
80103;BME280;69865;47.648;19.030;2023-06-10T01:58:09;100102.63;;;14.20;97.29
80103;BME280;69865;47.648;19.030;2023-06-10T01:58:41;100104.91;;;14.15;97.42
80103;BME280;69865;47.648;19.030;2023-06-10T01:59:13;100101.44;;;14.14;97.75
80103;BME280;69865;47.648;19.030;2023-06-10T01:59:45;100097.16;;;14.13;97.48
80103;BME280;69865;47.648;19.030;2023-06-10T02:00:17;100102.44;;;14.13;97.69
80103;BME280;69865;47.648;19.030;2023-06-10T02:00:49;100093.97;;;14.09;97.49
80103;BME280;69865;47.648;19.030;2023-06-10T02:01:21;100096.94;;;14.06;97.51
80103;BME280;69865;47.648;19.030;2023-06-10T02:01:54;100104.75;;;14.08;97.70
80103;BME280;69865;47.648;19.030;2023-06-10T02:02:26;100097.63;;;14.08;98.18
80103;BME280;69865;47.648;19.030;2023-06-10T02:02:58;100096.63;;;14.09;97.36
80103;BME280;69865;47.648;19.030;2023-06-10T02:03:30;100099.97;;;14.11;97.35
80103;BME280;69865;47.648;19.030;2023-06-10T02:04:02;100100.78;;;14.12;98.24
80103;BME280;69865;47.648;19.030;2023-06-10T02:04:35;100094.66;;;14.11;97.48
80103;BME280;69865;47.648;19.030;2023-06-10T02:05:07;100104.41;;;14.11;97.20
80103;BME280;69865;47.648;19.030;2023-06-10T02:05:39;100111.72;;;14.09;97.82
80103;BME280;69865;47.648;19.030;2023-06-10T02:06:11;100109.34;;;14.06;97.87
80103;BME280;69865;47.648;19.030;2023-06-10T02:06:45;100105.88;;;14.05;98.04
80103;BME280;69865;47.648;19.030;2023-06-10T02:07:17;100112.84;;;14.06;98.36
80103;BME280;69865;47.648;19.030;2023-06-10T02:07:49;100108.38;;;14.07;97.90
80103;BME280;69865;47.648;19.030;2023-06-10T02:08:21;100109.22;;;14.07;97.73
80103;BME280;69865;47.648;19.030;2023-06-10T02:08:53;100103.91;;;14.07;97.83
80103;BME280;69865;47.648;19.030;2023-06-10T02:09:25;100106.72;;;14.06;97.92
80103;BME280;69865;47.648;19.030;2023-06-10T02:09:57;100113.69;;;14.07;98.68
80103;BME280;69865;47.648;19.030;2023-06-10T02:10:29;100112.00;;;14.06;98.58
80103;BME280;69865;47.648;19.030;2023-06-10T02:11:01;100113.03;;;14.05;99.03
80103;BME280;69865;47.648;19.030;2023-06-10T02:11:33;100112.00;;;14.06;98.69
80103;BME280;69865;47.648;19.030;2023-06-10T02:12:06;100112.19;;;14.04;98.87
80103;BME280;69865;47.648;19.030;2023-06-10T02:12:38;100107.19;;;14.01;98.96
80103;BME280;69865;47.648;19.030;2023-06-10T02:13:10;100109.84;;;14.01;98.39
80103;BME280;69865;47.648;19.030;2023-06-10T02:13:42;100102.06;;;14.00;98.54
80103;BME280;69865;47.648;19.030;2023-06-10T02:14:15;100104.25;;;14.04;98.81
80103;BME280;69865;47.648;19.030;2023-06-10T02:14:47;100098.94;;;14.04;98.79
80103;BME280;69865;47.648;19.030;2023-06-10T02:15:19;100109.53;;;14.04;98.42
80103;BME280;69865;47.648;19.030;2023-06-10T02:15:51;100104.38;;;14.03;98.77
80103;BME280;69865;47.648;19.030;2023-06-10T02:16:23;100102.72;;;14.02;98.13
80103;BME280;69865;47.648;19.030;2023-06-10T02:16:55;100104.38;;;14.03;98.95
80103;BME280;69865;47.648;19.030;2023-06-10T02:17:27;100111.69;;;14.01;99.06
80103;BME280;69865;47.648;19.030;2023-06-10T02:18:00;100107.19;;;14.01;98.16
80103;BME280;69865;47.648;19.030;2023-06-10T02:18:32;100109.69;;;14.03;98.71
80103;BME280;69865;47.648;19.030;2023-06-10T02:19:04;100105.88;;;14.05;98.94
80103;BME280;69865;47.648;19.030;2023-06-10T02:19:36;100105.88;;;14.05;98.32
80103;BME280;69865;47.648;19.030;2023-06-10T02:20:09;100106.88;;;14.04;98.78
80103;BME280;69865;47.648;19.030;2023-06-10T02:20:41;100106.72;;;14.06;99.29
80103;BME280;69865;47.648;19.030;2023-06-10T02:21:13;100109.22;;;14.07;99.13
80103;BME280;69865;47.648;19.030;2023-06-10T02:21:46;100102.94;;;14.08;99.01
80103;BME280;69865;47.648;19.030;2023-06-10T02:22:20;100111.53;;;14.10;98.85
80103;BME280;69865;47.648;19.030;2023-06-10T02:22:52;100107.06;;;14.11;98.73
80103;BME280;69865;47.648;19.030;2023-06-10T02:23:24;100111.84;;;14.07;98.28
80103;BME280;69865;47.648;19.030;2023-06-10T02:23:56;100118.13;;;14.06;99.16
80103;BME280;69865;47.648;19.030;2023-06-10T02:24:28;100117.16;;;14.07;98.25
80103;BME280;69865;47.648;19.030;2023-06-10T02:25:00;100112.69;;;14.08;98.48
80103;BME280;69865;47.648;19.030;2023-06-10T02:25:32;100112.69;;;14.08;99.09
80103;BME280;69865;47.648;19.030;2023-06-10T02:26:07;100106.41;;;14.09;98.37
80103;BME280;69865;47.648;19.030;2023-06-10T02:26:39;100109.34;;;14.06;98.92
80103;BME280;69865;47.648;19.030;2023-06-10T02:27:11;100114.00;;;14.04;98.62
80103;BME280;69865;47.648;19.030;2023-06-10T02:27:43;100116.66;;;14.04;99.05
80103;BME280;69865;47.648;19.030;2023-06-10T02:28:15;100116.28;;;13.99;98.89
80103;BME280;69865;47.648;19.030;2023-06-10T02:28:47;100117.28;;;13.98;98.08
80103;BME280;69865;47.648;19.030;2023-06-10T02:29:21;100109.84;;;14.01;97.71
80103;BME280;69865;47.648;19.030;2023-06-10T02:29:54;100112.34;;;14.03;98.37
80103;BME280;69865;47.648;19.030;2023-06-10T02:30:26;100114.00;;;14.04;98.31
80103;BME280;69865;47.648;19.030;2023-06-10T02:30:58;100113.16;;;14.03;98.29
80103;BME280;69865;47.648;19.030;2023-06-10T02:31:31;100109.84;;;14.01;98.15
80103;BME280;69865;47.648;19.030;2023-06-10T02:32:04;100112.66;;;14.00;97.39
80103;BME280;69865;47.648;19.030;2023-06-10T02:32:39;100116.97;;;14.01;98.21
80103;BME280;69865;47.648;19.030;2023-06-10T02:33:11;100110.84;;;14.00;98.13
80103;BME280;69865;47.648;19.030;2023-06-10T02:33:43;100111.00;;;13.99;98.24
80103;BME280;69865;47.648;19.030;2023-06-10T02:34:15;100111.97;;;13.98;97.82
80103;BME280;69865;47.648;19.030;2023-06-10T02:34:47;100111.31;;;13.96;98.42
80103;BME280;69865;47.648;19.030;2023-06-10T02:35:19;100110.50;;;13.95;98.72
80103;BME280;69865;47.648;19.030;2023-06-10T02:35:51;100114.13;;;13.94;98.10
80103;BME280;69865;47.648;19.030;2023-06-10T02:36:23;100109.66;;;13.95;99.05
80103;BME280;69865;47.648;19.030;2023-06-10T02:36:56;100115.28;;;13.92;99.09
80103;BME280;69865;47.648;19.030;2023-06-10T02:37:28;100111.16;;;13.89;98.55
80103;BME280;69865;47.648;19.030;2023-06-10T02:38:00;100109.47;;;13.88;99.31
80103;BME280;69865;47.648;19.030;2023-06-10T02:38:32;100113.78;;;13.89;99.05
80103;BME280;69865;47.648;19.030;2023-06-10T02:39:05;100114.59;;;13.90;98.89
80103;BME280;69865;47.648;19.030;2023-06-10T02:39:37;100110.97;;;13.91;99.65
80103;BME280;69865;47.648;19.030;2023-06-10T02:40:10;100112.78;;;13.90;99.54
80103;BME280;69865;47.648;19.030;2023-06-10T02:40:42;100113.78;;;13.89;99.88
80103;BME280;69865;47.648;19.030;2023-06-10T02:41:14;100113.47;;;13.92;99.85
80103;BME280;69865;47.648;19.030;2023-06-10T02:41:46;100113.47;;;13.92;99.75
80103;BME280;69865;47.648;19.030;2023-06-10T02:42:18;100111.94;;;13.90;99.54
80103;BME280;69865;47.648;19.030;2023-06-10T02:42:50;100113.47;;;13.92;99.87
80103;BME280;69865;47.648;19.030;2023-06-10T02:43:22;100109.97;;;13.92;99.43
80103;BME280;69865;47.648;19.030;2023-06-10T02:43:54;100109.66;;;13.95;100.00
80103;BME280;69865;47.648;19.030;2023-06-10T02:44:26;100113.97;;;13.96;99.27
80103;BME280;69865;47.648;19.030;2023-06-10T02:44:58;100118.09;;;13.98;99.21
80103;BME280;69865;47.648;19.030;2023-06-10T02:45:30;100113.00;;;13.97;99.48
80103;BME280;69865;47.648;19.030;2023-06-10T02:46:02;100118.28;;;13.97;100.00
80103;BME280;69865;47.648;19.030;2023-06-10T02:46:35;100116.28;;;13.99;99.64
80103;BME280;69865;47.648;19.030;2023-06-10T02:47:07;100111.97;;;13.98;99.54
80103;BME280;69865;47.648;19.030;2023-06-10T02:47:39;100117.28;;;13.98;98.88
80103;BME280;69865;47.648;19.030;2023-06-10T02:48:11;100118.94;;;13.99;99.82
80103;BME280;69865;47.648;19.030;2023-06-10T02:48:45;100118.59;;;13.94;99.24
80103;BME280;69865;47.648;19.030;2023-06-10T02:49:17;100114.97;;;13.95;98.88
80103;BME280;69865;47.648;19.030;2023-06-10T02:49:49;100126.06;;;13.98;99.36
80103;BME280;69865;47.648;19.030;2023-06-10T02:50:21;100119.91;;;13.98;99.99